createdAt,value
2018-01-03T00:02:17.484Z,84.75
2018-01-03T00:04:45.157Z,84.33
2018-01-03T00:07:12.739Z,83.74
2018-01-03T00:09:40.344Z,83.91
2018-01-03T00:12:07.984Z,83.79
2018-01-03T00:14:35.561Z,84.04
2018-01-03T00:17:03.181Z,83.82
2018-01-03T00:19:30.788Z,83.60
2018-01-03T00:21:58.391Z,83.74
2018-01-03T00:24:26.014Z,83.93
2018-01-03T00:26:53.620Z,83.59
2018-01-03T00:29:21.222Z,83.93
2018-01-03T00:31:48.850Z,84.00
2018-01-03T00:34:16.452Z,83.78
2018-01-03T00:36:44.064Z,83.92
2018-01-03T00:39:11.728Z,84.03
2018-01-03T00:41:39.396Z,84.07
2018-01-03T00:44:07.024Z,83.87
2018-01-03T00:46:34.667Z,83.85
2018-01-03T00:49:02.294Z,83.50
2018-01-03T00:51:30.196Z,83.42
2018-01-03T00:53:57.820Z,83.52
2018-01-03T00:56:25.464Z,83.87
2018-01-03T00:58:53.391Z,83.83
2018-01-03T01:01:20.992Z,83.76
2018-01-03T01:03:48.607Z,83.54
2018-01-03T01:06:16.226Z,83.35
2018-01-03T01:08:43.847Z,83.46
2018-01-03T01:11:11.447Z,83.35
2018-01-03T01:13:39.036Z,82.90
2018-01-03T01:16:06.656Z,83.22
2018-01-03T01:18:34.255Z,83.33
2018-01-03T01:21:01.905Z,83.42
2018-01-03T01:23:29.531Z,83.21
2018-01-03T01:25:57.123Z,83.33
2018-01-03T01:28:24.759Z,83.40
2018-01-03T01:30:52.708Z,83.71
2018-01-03T01:33:20.331Z,83.36
2018-01-03T01:35:47.926Z,83.00
2018-01-03T01:40:49.363Z,82.99
2018-01-03T01:43:16.990Z,83.07
2018-01-03T01:45:44.638Z,82.78
2018-01-03T01:48:12.504Z,82.83
2018-01-03T01:50:40.077Z,82.58
2018-01-03T01:53:07.741Z,82.55
2018-01-03T01:55:35.335Z,82.56
2018-01-03T01:58:02.966Z,82.28
2018-01-03T02:00:30.545Z,82.46
2018-01-03T02:02:58.130Z,82.42
2018-01-03T02:05:25.791Z,82.56
2018-01-03T02:07:53.398Z,82.79
2018-01-03T02:10:21.027Z,83.07
2018-01-03T02:12:48.622Z,83.47
2018-01-03T02:15:16.244Z,83.16
2018-01-03T02:17:43.848Z,83.24
2018-01-03T02:20:11.416Z,83.38
2018-01-03T02:22:39.368Z,83.16
2018-01-03T02:25:06.953Z,83.21
2018-01-03T02:27:34.531Z,82.90
2018-01-03T02:30:02.418Z,83.01
2018-01-03T02:32:30.015Z,82.54
2018-01-03T02:34:57.996Z,82.61
2018-01-03T02:37:25.573Z,82.65
2018-01-03T02:39:53.176Z,82.34
2018-01-03T02:42:20.788Z,82.09
2018-01-03T02:44:48.644Z,81.99
2018-01-03T02:47:16.296Z,82.30
2018-01-03T02:49:43.862Z,82.01
2018-01-03T02:52:11.446Z,82.02
2018-01-03T02:54:39.069Z,82.07
2018-01-03T02:57:06.661Z,81.94
2018-01-03T02:59:34.299Z,81.94
2018-01-03T03:02:02.294Z,82.29
2018-01-03T03:04:29.910Z,82.37
2018-01-03T03:06:57.520Z,82.39
2018-01-03T03:09:25.106Z,82.38
2018-01-03T03:11:52.719Z,82.06
2018-01-03T03:14:20.298Z,82.27
2018-01-03T03:16:47.910Z,82.01
2018-01-03T03:19:15.559Z,81.70
2018-01-03T03:21:43.144Z,81.66
2018-01-03T03:24:10.775Z,81.45
2018-01-03T03:26:38.363Z,81.46
2018-01-03T03:29:05.957Z,81.28
2018-01-03T03:31:33.567Z,81.21
2018-01-03T03:34:01.143Z,80.79
2018-01-03T03:36:28.795Z,81.11
2018-01-03T03:38:56.386Z,80.71
2018-01-03T03:41:24.694Z,81.23
2018-01-03T03:43:52.302Z,81.15
2018-01-03T03:46:19.894Z,80.90
2018-01-03T03:48:47.780Z,80.98
2018-01-03T03:51:16.301Z,81.00
2018-01-03T03:53:44.232Z,80.67
2018-01-03T03:56:11.840Z,80.94
2018-01-03T03:58:39.417Z,80.94
2018-01-03T04:01:07.059Z,80.73
2018-01-03T04:03:34.631Z,80.52
2018-01-03T04:06:02.215Z,80.21
2018-01-03T04:08:29.831Z,80.48
2018-01-03T04:10:57.408Z,80.17
2018-01-03T04:13:25.050Z,80.25
2018-01-03T04:15:52.632Z,80.65
2018-01-03T04:18:20.213Z,81.39
2018-01-03T04:20:47.828Z,81.46
2018-01-03T04:23:15.525Z,81.94
2018-01-03T04:25:43.181Z,81.89
2018-01-03T04:28:11.017Z,82.53
2018-01-03T04:30:38.596Z,82.74
2018-01-03T04:33:06.739Z,82.82
2018-01-03T04:35:34.320Z,83.34
2018-01-03T04:38:02.291Z,83.26
2018-01-03T04:40:29.872Z,83.77
2018-01-03T04:42:57.817Z,84.19
2018-01-03T04:45:25.449Z,84.31
2018-01-03T04:47:53.037Z,84.98
2018-01-03T04:50:20.672Z,85.82
2018-01-03T04:52:48.271Z,86.03
2018-01-03T04:55:15.840Z,86.28
2018-01-03T04:57:43.786Z,86.90
2018-01-03T05:00:11.383Z,86.80
2018-01-03T05:02:39.043Z,86.77
2018-01-03T05:05:06.647Z,86.96
2018-01-03T05:07:34.229Z,86.61
2018-01-03T05:10:01.866Z,87.37
2018-01-03T05:12:29.450Z,87.03
2018-01-03T05:14:57.056Z,87.08
2018-01-03T05:17:24.980Z,87.30
2018-01-03T05:19:52.556Z,87.68
2018-01-03T05:22:20.163Z,87.96
2018-01-03T05:24:47.796Z,88.31
2018-01-03T05:27:15.437Z,88.43
2018-01-03T05:29:43.301Z,88.61
2018-01-03T05:32:11.168Z,88.60
2018-01-03T05:34:38.875Z,88.91
2018-01-03T05:37:06.475Z,88.75
2018-01-03T05:39:34.103Z,89.51
2018-01-03T05:42:01.695Z,89.46
2018-01-03T05:44:29.270Z,90.01
2018-01-03T05:46:56.879Z,89.95
2018-01-03T05:49:24.446Z,90.02
2018-01-03T05:51:52.072Z,90.96
2018-01-03T05:54:19.934Z,90.54
2018-01-03T05:56:47.554Z,90.91
2018-01-03T05:59:15.160Z,91.25
2018-01-03T06:01:42.764Z,91.35
2018-01-03T06:04:10.687Z,91.67
2018-01-03T06:06:38.271Z,91.33
2018-01-03T06:09:05.879Z,91.42
2018-01-03T06:11:33.535Z,91.37
2018-01-03T06:14:01.116Z,91.48
2018-01-03T06:16:28.753Z,91.75
2018-01-03T06:18:56.392Z,92.00
2018-01-03T06:21:23.975Z,92.02
2018-01-03T06:23:51.585Z,91.99
2018-01-03T06:26:19.194Z,91.90
2018-01-03T06:28:46.827Z,92.58
2018-01-03T06:31:14.394Z,92.65
2018-01-03T06:33:41.977Z,93.15
2018-01-03T06:36:09.658Z,92.95
2018-01-03T06:38:37.278Z,93.34
2018-01-03T06:41:05.676Z,92.87
2018-01-03T06:43:33.256Z,92.79
2018-01-03T06:46:00.843Z,93.42
2018-01-03T06:48:28.509Z,93.68
2018-01-03T06:50:56.085Z,93.91
2018-01-03T06:53:23.907Z,94.10
2018-01-03T06:55:51.507Z,94.24
2018-01-03T06:58:19.106Z,94.22
2018-01-03T07:00:46.726Z,94.59
2018-01-03T07:03:14.309Z,94.42
2018-01-03T07:05:41.921Z,94.53
2018-01-03T07:08:09.827Z,94.49
2018-01-03T07:10:37.409Z,94.57
2018-01-03T07:13:05.020Z,94.44
2018-01-03T07:15:32.646Z,94.60
2018-01-03T07:18:00.295Z,94.90
2018-01-03T07:20:27.873Z,95.03
2018-01-03T07:22:55.451Z,95.12
2018-01-03T07:25:23.059Z,95.05
2018-01-03T07:27:50.636Z,94.73
2018-01-03T07:30:18.248Z,94.76
2018-01-03T07:32:46.144Z,94.79
2018-01-03T07:35:14.135Z,95.08
2018-01-03T07:37:41.754Z,94.91
2018-01-03T07:40:09.332Z,95.00
2018-01-03T07:42:36.914Z,95.33
2018-01-03T07:45:04.877Z,95.27
2018-01-03T07:47:32.847Z,95.21
2018-01-03T07:50:00.423Z,95.14
2018-01-03T07:52:28.375Z,95.37
2018-01-03T07:54:55.975Z,95.10
2018-01-03T07:57:23.559Z,95.49
2018-01-03T07:59:51.179Z,95.69
2018-01-03T08:02:18.820Z,95.80
2018-01-03T08:04:46.395Z,96.03
2018-01-03T08:07:13.999Z,95.64
2018-01-03T08:09:41.586Z,95.68
2018-01-03T08:12:09.313Z,95.84
2018-01-03T08:14:36.969Z,95.49
2018-01-03T08:17:04.631Z,95.37
2018-01-03T08:19:32.422Z,95.27
2018-01-03T08:22:00.073Z,95.54
2018-01-03T08:24:27.774Z,95.32
2018-01-03T08:26:55.391Z,95.19
2018-01-03T08:29:22.976Z,95.26
2018-01-03T08:31:50.885Z,95.17
2018-01-03T08:34:18.464Z,95.22
2018-01-03T08:36:46.083Z,95.30
2018-01-03T08:39:13.673Z,94.62
2018-01-03T08:41:41.254Z,94.95
2018-01-03T08:44:08.861Z,94.76
2018-01-03T08:46:36.435Z,94.75
2018-01-03T08:49:04.430Z,94.81
2018-01-03T08:51:32.018Z,94.95
2018-01-03T08:53:59.613Z,94.93
2018-01-03T08:56:27.235Z,94.64
2018-01-03T08:58:54.816Z,94.65
2018-01-03T09:01:22.596Z,94.98
2018-01-03T09:03:50.172Z,95.00
2018-01-03T09:06:18.069Z,94.99
2018-01-03T09:08:45.664Z,95.12
2018-01-03T09:11:13.243Z,95.10
2018-01-03T09:13:40.856Z,95.05
2018-01-03T09:16:08.439Z,95.15
2018-01-03T09:18:36.024Z,94.79
2018-01-03T09:21:03.623Z,95.04
2018-01-03T09:23:31.246Z,95.18
2018-01-03T09:25:58.867Z,94.76
2018-01-03T09:28:26.498Z,94.47
2018-01-03T09:30:54.094Z,94.63
2018-01-03T09:33:22.062Z,94.90
2018-01-03T09:35:49.691Z,94.77
2018-01-03T09:38:17.351Z,94.77
2018-01-03T09:40:44.928Z,94.79
2018-01-03T09:43:13.074Z,94.83
2018-01-03T09:45:40.676Z,94.66
2018-01-03T09:48:08.271Z,94.78
2018-01-03T09:50:35.909Z,94.75
2018-01-03T09:53:03.491Z,94.80
2018-01-03T09:55:31.099Z,94.46
2018-01-03T09:57:58.708Z,94.73
2018-01-03T10:00:26.324Z,94.91
2018-01-03T10:02:54.038Z,94.94
2018-01-03T10:05:21.611Z,94.91
2018-01-03T10:07:49.230Z,94.94
2018-01-03T10:10:16.905Z,94.62
2018-01-03T10:12:44.492Z,94.49
2018-01-03T10:15:12.116Z,94.41
2018-01-03T10:17:39.985Z,94.21
2018-01-03T10:20:07.567Z,94.36
2018-01-03T10:22:35.620Z,94.44
2018-01-03T10:25:03.300Z,94.43
2018-01-03T10:27:30.955Z,94.38
2018-01-03T10:29:59.274Z,94.34
2018-01-03T10:32:26.914Z,93.67
2018-01-03T10:34:55.481Z,94.06
2018-01-03T10:37:23.452Z,94.33
2018-01-03T10:39:51.406Z,94.17
2018-01-03T10:42:19.044Z,94.17
2018-01-03T10:44:46.640Z,93.94
2018-01-03T10:47:14.307Z,93.77
2018-01-03T10:49:41.894Z,93.90
2018-01-03T10:52:10.006Z,93.92
2018-01-03T10:54:38.003Z,93.96
2018-01-03T10:57:05.644Z,93.83
2018-01-03T10:59:33.255Z,93.78
2018-01-03T11:02:00.839Z,93.40
2018-01-03T11:04:29.701Z,93.21
2018-01-03T11:06:57.315Z,93.22
2018-01-03T11:09:24.897Z,92.99
2018-01-03T11:11:52.516Z,93.19
2018-01-03T11:14:21.256Z,92.71
2018-01-03T11:16:48.904Z,92.84
2018-01-03T11:19:16.785Z,92.77
2018-01-03T11:21:44.369Z,92.96
2018-01-03T11:24:11.992Z,93.17
2018-01-03T11:26:39.574Z,93.03
2018-01-03T11:29:07.191Z,92.89
2018-01-03T11:31:34.759Z,92.54
2018-01-03T11:34:02.332Z,92.33
2018-01-03T11:36:29.935Z,92.15
2018-01-03T11:38:57.883Z,91.74
2018-01-03T11:41:25.522Z,91.58
2018-01-03T11:43:53.424Z,91.83
2018-01-03T11:46:21.014Z,91.57
2018-01-03T11:48:48.609Z,91.09
2018-01-03T11:51:16.206Z,90.60
2018-01-03T11:53:43.832Z,90.47
2018-01-03T11:56:11.428Z,90.38
2018-01-03T11:58:39.057Z,89.78
2018-01-03T12:01:06.672Z,89.67
2018-01-03T12:03:34.302Z,89.75
2018-01-03T12:06:01.951Z,90.07
2018-01-03T12:08:29.527Z,90.70
2018-01-03T12:10:57.156Z,91.28
2018-01-03T12:13:25.068Z,90.40
2018-01-03T12:15:52.632Z,85.00
2018-01-03T12:18:20.238Z,86.42
2018-01-03T12:20:47.822Z,88.10
2018-01-03T12:23:15.560Z,89.11
2018-01-03T12:25:43.214Z,89.00
2018-01-03T12:28:10.788Z,88.28
2018-01-03T12:30:38.415Z,87.92
2018-01-03T12:33:06.008Z,87.28
2018-01-03T12:35:33.581Z,86.77
2018-01-03T12:38:01.216Z,87.39
2018-01-03T12:40:28.788Z,86.42
2018-01-03T12:42:56.406Z,86.20
2018-01-03T12:45:24.009Z,86.51
2018-01-03T12:47:51.590Z,87.02
2018-01-03T12:50:19.184Z,86.24
2018-01-03T12:52:47.059Z,86.40
2018-01-03T12:55:14.670Z,86.44
2018-01-03T12:57:42.265Z,86.03
2018-01-03T13:00:09.877Z,85.97
2018-01-03T13:02:37.491Z,86.07
2018-01-03T13:05:05.066Z,85.58
2018-01-03T13:07:32.705Z,85.96
2018-01-03T13:10:00.301Z,84.33
2018-01-03T13:12:27.892Z,84.52
2018-01-03T13:14:55.527Z,84.67
2018-01-03T13:17:23.148Z,85.58
2018-01-03T13:19:50.761Z,84.22
2018-01-03T13:22:18.342Z,83.36
2018-01-03T13:24:45.927Z,82.72
2018-01-03T13:27:13.526Z,83.30
2018-01-03T13:29:41.204Z,83.32
2018-01-03T13:32:08.909Z,83.42
2018-01-03T13:34:36.786Z,83.48
2018-01-03T13:37:04.798Z,83.28
2018-01-03T13:39:32.415Z,83.69
2018-01-03T13:42:00.018Z,83.13
2018-01-03T13:44:27.684Z,83.46
2018-01-03T13:46:55.277Z,83.88
2018-01-03T13:49:22.910Z,83.74
2018-01-03T13:51:50.884Z,84.23
2018-01-03T13:54:18.742Z,83.90
2018-01-03T13:56:46.368Z,83.67
2018-01-03T13:59:13.995Z,83.53
2018-01-03T14:01:41.863Z,83.64
2018-01-03T14:04:09.476Z,82.94
2018-01-03T14:06:37.069Z,83.70
2018-01-03T14:09:04.697Z,82.28
2018-01-03T14:11:32.276Z,81.85
2018-01-03T14:13:59.879Z,80.89
2018-01-03T14:16:27.562Z,81.61
2018-01-03T14:18:55.584Z,80.75
2018-01-03T14:21:23.252Z,81.60
2018-01-03T14:23:50.837Z,80.55
2018-01-03T14:26:18.416Z,81.44
2018-01-03T14:28:46.142Z,80.87
2018-01-03T14:31:13.751Z,80.59
2018-01-03T14:33:41.765Z,80.93
2018-01-03T14:36:09.654Z,80.42
2018-01-03T14:38:37.501Z,81.12
2018-01-03T14:41:05.111Z,81.38
2018-01-03T14:43:32.736Z,80.60
2018-01-03T14:46:00.853Z,80.82
2018-01-03T14:48:28.441Z,81.16
2018-01-03T14:50:56.040Z,81.08
2018-01-03T14:53:24.515Z,80.63
2018-01-03T14:55:52.146Z,81.99
2018-01-03T14:58:19.776Z,81.11
2018-01-03T15:00:47.455Z,80.81
2018-01-03T15:03:15.039Z,81.75
2018-01-03T15:05:42.671Z,81.78
2018-01-03T15:08:10.266Z,81.71
2018-01-03T15:10:37.874Z,81.89
2018-01-03T15:13:05.806Z,82.69
2018-01-03T15:15:33.405Z,82.55
2018-01-03T15:18:01.025Z,83.22
2018-01-03T15:20:28.673Z,83.83
2018-01-03T15:22:56.258Z,84.42
2018-01-03T15:25:23.921Z,84.11
2018-01-03T15:27:51.524Z,84.41
2018-01-03T15:30:19.355Z,85.69
2018-01-03T15:32:46.972Z,86.51
2018-01-03T15:35:14.557Z,86.92
2018-01-03T15:37:42.187Z,87.58
2018-01-03T15:40:10.026Z,87.84
2018-01-03T15:42:37.605Z,88.65
2018-01-03T15:45:05.225Z,89.04
2018-01-03T15:47:32.827Z,89.23
2018-01-03T15:50:00.442Z,89.66
2018-01-03T15:52:28.043Z,89.23
2018-01-03T15:54:55.627Z,89.90
2018-01-03T15:57:23.323Z,90.28
2018-01-03T15:59:50.917Z,89.87
2018-01-03T16:02:18.563Z,89.96
2018-01-03T16:04:46.230Z,89.90
2018-01-03T16:07:14.109Z,90.50
2018-01-03T16:09:41.717Z,90.22
2018-01-03T16:12:09.298Z,90.04
2018-01-03T16:14:36.907Z,90.06
2018-01-03T16:17:04.529Z,90.54
2018-01-03T16:19:32.117Z,90.45
2018-01-03T16:21:59.731Z,89.89
2018-01-03T16:24:27.544Z,89.27
2018-01-03T16:26:55.179Z,89.50
2018-01-03T16:29:22.775Z,89.08
2018-01-03T16:31:50.385Z,88.69
2018-01-03T16:34:18.026Z,88.77
2018-01-03T16:36:45.631Z,88.03
2018-01-03T16:39:13.305Z,88.29
2018-01-03T16:41:40.881Z,87.58
2018-01-03T16:44:08.512Z,87.59
2018-01-03T16:46:36.169Z,87.66
2018-01-03T16:49:03.756Z,87.31
2018-01-03T16:51:36.941Z,87.02
2018-01-03T16:54:04.553Z,86.68
2018-01-03T16:56:32.177Z,87.25
2018-01-03T16:58:59.792Z,87.82
2018-01-03T17:01:27.378Z,87.57
2018-01-03T17:03:55.022Z,87.87
2018-01-03T17:06:22.626Z,88.12
2018-01-03T17:08:50.219Z,88.09
2018-01-03T17:11:18.149Z,88.41
2018-01-03T17:13:45.722Z,87.93
2018-01-03T17:16:13.672Z,88.64
2018-01-03T17:18:41.652Z,89.27
2018-01-03T17:21:09.314Z,88.99
2018-01-03T17:23:36.921Z,89.29
2018-01-03T17:26:04.510Z,89.37
2018-01-03T17:28:32.227Z,88.52
2018-01-03T17:30:59.857Z,88.71
2018-01-03T17:33:27.456Z,88.74
2018-01-03T17:35:55.397Z,88.12
2018-01-03T17:38:22.993Z,88.34
2018-01-03T17:40:50.606Z,88.37
2018-01-03T17:43:18.175Z,88.90
2018-01-03T17:45:45.904Z,88.90
2018-01-03T17:48:13.907Z,88.51
2018-01-03T17:50:41.516Z,88.53
2018-01-03T17:53:10.574Z,89.23
2018-01-03T17:55:38.741Z,89.61
2018-01-03T17:58:06.329Z,89.87
2018-01-03T18:00:33.948Z,89.96
2018-01-03T18:03:01.527Z,89.83
2018-01-03T18:05:29.499Z,90.24
2018-01-03T18:07:57.085Z,90.54
2018-01-03T18:10:24.675Z,90.16
2018-01-03T18:12:52.584Z,89.89
2018-01-03T18:15:20.456Z,89.84
2018-01-03T18:17:48.322Z,89.87
2018-01-03T18:20:16.244Z,89.96
2018-01-03T18:22:43.807Z,90.04
2018-01-03T18:25:11.403Z,89.78
2018-01-03T18:27:39.072Z,89.53
2018-01-03T18:30:06.689Z,89.25
2018-01-03T18:32:34.270Z,89.30
2018-01-03T18:35:01.865Z,89.61
2018-01-03T18:37:29.544Z,89.30
2018-01-03T18:39:57.125Z,89.42
2018-01-03T18:42:25.051Z,89.71
2018-01-03T18:44:52.919Z,88.71
2018-01-03T18:47:20.519Z,88.68
2018-01-03T18:49:48.242Z,88.44
2018-01-03T18:52:15.808Z,88.13
2018-01-03T18:54:43.576Z,88.50
2018-01-03T18:57:11.196Z,88.24
2018-01-03T18:59:38.778Z,87.96
2018-01-03T19:02:07.390Z,87.86
2018-01-03T19:04:35.044Z,87.98
2018-01-03T19:07:02.659Z,87.33
2018-01-03T19:09:30.261Z,87.75
2018-01-03T19:11:57.833Z,87.75
2018-01-03T19:14:25.444Z,87.83
2018-01-03T19:16:53.362Z,87.50
2018-01-03T19:19:21.044Z,87.69
2018-01-03T19:21:48.618Z,87.85
2018-01-03T19:24:16.269Z,88.00
2018-01-03T19:26:43.893Z,87.80
2018-01-03T19:29:11.785Z,88.30
2018-01-03T19:31:39.399Z,88.28
2018-01-03T19:34:07.023Z,88.11
2018-01-03T19:36:34.605Z,88.14
2018-01-03T19:39:03.401Z,87.97
2018-01-03T19:41:31.105Z,88.06
2018-01-03T19:43:59.002Z,87.83
2018-01-03T19:46:26.583Z,87.59
2018-01-03T19:48:54.168Z,87.88
2018-01-03T19:51:21.776Z,88.28
2018-01-03T19:53:49.373Z,88.33
2018-01-03T19:56:17.307Z,88.64
2018-01-03T19:58:45.182Z,88.25
2018-01-03T20:01:12.762Z,88.00
2018-01-03T20:03:40.379Z,87.67
2018-01-03T20:06:07.980Z,88.05
2018-01-03T20:08:35.605Z,86.97
2018-01-03T20:11:03.220Z,86.76
2018-01-03T20:13:30.858Z,86.10
2018-01-03T20:15:58.576Z,86.25
2018-01-03T20:18:26.252Z,85.69
2018-01-03T20:20:53.859Z,85.39
2018-01-03T20:23:21.556Z,85.77
2018-01-03T20:25:49.171Z,85.14
2018-01-03T20:28:16.903Z,84.57
2018-01-03T20:30:44.792Z,84.61
2018-01-03T20:33:12.516Z,83.83
2018-01-03T20:35:40.423Z,83.71
2018-01-03T20:38:08.066Z,83.65
2018-01-03T20:40:35.756Z,84.34
2018-01-03T20:43:03.719Z,83.92
2018-01-03T20:45:31.589Z,84.25
2018-01-03T20:48:00.519Z,84.94
2018-01-03T20:50:28.484Z,85.44
2018-01-03T20:52:56.100Z,85.26
2018-01-03T20:55:23.739Z,85.94
2018-01-03T20:57:51.362Z,86.86
2018-01-03T21:00:19.315Z,86.01
2018-01-03T21:02:46.935Z,86.83
2018-01-03T21:05:14.568Z,87.15
2018-01-03T21:07:42.153Z,87.00
2018-01-03T21:10:09.789Z,87.58
2018-01-03T21:12:37.416Z,87.50
2018-01-03T21:15:05.953Z,87.05
2018-01-03T21:17:33.564Z,86.75
2018-01-03T21:20:01.531Z,87.11
2018-01-03T21:22:29.144Z,87.24
2018-01-03T21:24:56.787Z,87.53
2018-01-03T21:27:24.391Z,87.25
2018-01-03T21:29:52.047Z,86.62
2018-01-03T21:32:19.652Z,86.43
2018-01-03T21:34:47.310Z,86.65
2018-01-03T21:37:15.179Z,86.03
2018-01-03T21:39:42.860Z,86.17
2018-01-03T21:42:10.806Z,86.51
2018-01-03T21:44:38.390Z,86.36
2018-01-03T21:47:06.005Z,86.46
2018-01-03T21:49:33.598Z,86.18
2018-01-03T21:52:01.416Z,86.74
2018-01-03T21:54:29.818Z,86.71
2018-01-03T21:56:57.428Z,86.98
2018-01-03T21:59:25.052Z,87.18
2018-01-03T22:01:52.657Z,86.84
2018-01-03T22:04:20.497Z,86.35
2018-01-03T22:06:48.471Z,86.35
2018-01-03T22:09:16.048Z,86.27
2018-01-03T22:11:43.675Z,86.11
2018-01-03T22:14:11.256Z,85.87
2018-01-03T22:16:38.836Z,85.50
2018-01-03T22:19:06.430Z,84.58
2018-01-03T22:21:34.014Z,84.32
2018-01-03T22:24:01.628Z,83.49
2018-01-03T22:26:29.230Z,82.77
2018-01-03T22:28:57.138Z,82.89
2018-01-03T22:31:24.747Z,81.72
2018-01-03T22:33:52.327Z,80.98
2018-01-03T22:36:19.896Z,81.72
2018-01-03T22:38:47.519Z,81.55
2018-01-03T22:41:15.100Z,81.12
2018-01-03T22:43:42.686Z,81.20
2018-01-03T22:46:10.422Z,80.77
2018-01-03T22:48:37.999Z,81.01
2018-01-03T22:51:05.996Z,81.26
2018-01-03T22:53:33.607Z,81.62
2018-01-03T22:56:01.218Z,81.24
2018-01-03T22:58:28.832Z,80.50
2018-01-03T23:03:30.320Z,81.03
2018-01-03T23:05:57.900Z,81.44
2018-01-03T23:08:25.484Z,81.23
2018-01-03T23:10:53.088Z,80.82
2018-01-03T23:13:20.728Z,81.20
2018-01-03T23:15:48.358Z,81.48
2018-01-03T23:18:15.981Z,81.04
2018-01-03T23:20:43.564Z,80.61
2018-01-03T23:23:11.168Z,80.35
2018-01-03T23:25:38.784Z,79.65
2018-01-03T23:28:06.442Z,78.91
2018-01-03T23:30:34.028Z,79.07
2018-01-03T23:33:01.910Z,79.00
2018-01-03T23:35:29.557Z,78.57
2018-01-03T23:37:57.424Z,77.71
2018-01-03T23:40:25.045Z,77.60
2018-01-03T23:42:52.689Z,77.71
2018-01-03T23:45:20.292Z,77.00
2018-01-03T23:47:47.927Z,77.21
2018-01-03T23:50:15.846Z,77.18
2018-01-03T23:52:43.470Z,77.38
2018-01-03T23:55:11.076Z,77.28
2018-01-03T23:57:38.676Z,77.92
